Time;durP1;ratioP1;P1;durP2;ratioP2;P2;SDS_P1;SDS_P2;PMS_P1;PMS_P2;Temp;Humidity;BMP_temperature;BMP_pressure;BME280_temperature;BME280_humidity;BME280_pressure;Samples;Min_cycle;Max_cycle;Signal;HPM_P1;HPM_P2
2021/08/21 00:01:04;;;;;;;6.38;4.53;;;21.50;69.60;;;;;;5033341;28;20022;-59
2021/08/21 00:03:30;;;;;;;6.30;4.28;;;21.50;70.10;;;;;;5033037;28;20026;-57
2021/08/21 00:05:56;;;;;;;5.78;4.50;;;21.50;69.90;;;;;;5032820;28;20037;-58
2021/08/21 00:08:21;;;;;;;6.43;4.97;;;21.40;70.10;;;;;;5032948;28;20025;-59
2021/08/21 00:10:47;;;;;;;5.70;4.57;;;21.50;70.30;;;;;;5033142;28;20097;-58
2021/08/21 00:13:13;;;;;;;6.00;5.35;;;21.50;70.20;;;;;;5032839;28;20026;-58
2021/08/21 00:15:38;;;;;;;8.02;5.05;;;21.40;70.20;;;;;;5032916;28;20091;-58
2021/08/21 00:18:04;;;;;;;6.05;4.72;;;21.40;70.20;;;;;;5033021;28;20564;-59
2021/08/21 00:20:30;;;;;;;6.00;4.63;;;21.50;70.20;;;;;;5045270;28;20101;-58
2021/08/21 00:22:56;;;;;;;5.13;4.30;;;21.40;70.30;;;;;;5055224;28;20528;-58
2021/08/21 00:25:22;;;;;;;5.97;4.93;;;21.40;70.20;;;;;;5056786;28;20021;-58
2021/08/21 00:27:47;;;;;;;6.75;4.88;;;21.40;70.10;;;;;;5056762;28;20024;-58
2021/08/21 00:30:14;;;;;;;5.45;4.65;;;21.40;70.00;;;;;;5056444;28;20029;-58
2021/08/21 00:32:40;;;;;;;5.00;4.38;;;21.40;69.80;;;;;;5037340;28;20032;-59
2021/08/21 00:35:08;;;;;;;6.43;4.97;;;21.30;69.70;;;;;;5036724;28;20385;-59
2021/08/21 00:37:33;;;;;;;5.20;4.40;;;21.30;69.70;;;;;;5036297;28;20067;-59
2021/08/21 00:39:59;;;;;;;5.75;4.47;;;21.30;69.70;;;;;;5036464;28;20022;-59
2021/08/21 00:42:25;;;;;;;6.13;4.90;;;21.30;69.70;;;;;;5036089;28;20029;-58
2021/08/21 00:44:50;;;;;;;5.75;4.90;;;21.20;69.60;;;;;;5036149;28;20029;-58
2021/08/21 00:47:18;;;;;;;5.82;4.88;;;21.20;69.50;;;;;;5048294;28;20480;-58
2021/08/21 00:49:52;;;;;;;5.85;4.95;;;21.20;69.50;;;;;;5056193;28;20469;-58
2021/08/21 00:52:30;;;;;;;6.82;5.07;;;21.20;69.60;;;;;;5055989;28;20048;-58
2021/08/21 00:54:57;;;;;;;6.20;4.93;;;21.20;69.70;;;;;;5056284;28;20047;-58
2021/08/21 00:57:26;;;;;;;5.85;4.45;;;21.10;69.70;;;;;;5037995;28;20017;-58
2021/08/21 00:59:53;;;;;;;8.27;4.57;;;21.10;69.80;;;;;;5056065;28;20033;-58
2021/08/21 01:02:20;;;;;;;6.18;4.85;;;21.10;69.70;;;;;;5055945;28;20028;-58
2021/08/21 01:04:52;;;;;;;5.63;4.70;;;21.10;69.70;;;;;;5056169;28;20029;-57
2021/08/21 01:07:19;;;;;;;6.13;4.82;;;21.10;69.60;;;;;;5055984;28;20024;-59
2021/08/21 01:09:45;;;;;;;5.10;4.43;;;21.00;69.50;;;;;;5055821;28;20106;-59
2021/08/21 01:12:16;;;;;;;6.07;4.43;;;21.00;69.50;;;;;;5055964;28;20435;-59
2021/08/21 01:14:44;;;;;;;5.47;4.57;;;21.00;69.50;;;;;;5055701;28;20400;-59
2021/08/21 01:17:10;;;;;;;6.65;5.10;;;21.00;69.60;;;;;;5043743;28;20099;-58
2021/08/21 01:19:38;;;;;;;5.40;4.53;;;20.90;69.50;;;;;;5034941;28;20033;-59
2021/08/21 01:22:06;;;;;;;5.78;4.53;;;20.90;69.60;;;;;;5034193;28;20021;-58
2021/08/21 01:24:34;;;;;;;6.93;4.47;;;20.90;69.70;;;;;;5034353;28;20037;-58
2021/08/21 01:27:00;;;;;;;5.35;4.50;;;20.80;69.60;;;;;;5035552;28;20036;-58
2021/08/21 01:29:25;;;;;;;5.63;4.20;;;20.80;69.60;;;;;;5035587;28;20025;-58
2021/08/21 01:31:51;;;;;;;6.57;4.80;;;20.80;69.80;;;;;;5035297;28;20088;-59
2021/08/21 01:34:18;;;;;;;5.68;5.07;;;20.80;69.60;;;;;;5034786;28;20021;-58
2021/08/21 01:36:47;;;;;;;8.90;5.25;;;20.80;69.70;;;;;;5035646;28;20025;-58
2021/08/21 01:39:14;;;;;;;6.88;4.45;;;20.80;69.80;;;;;;5035334;28;20025;-58
2021/08/21 01:41:42;;;;;;;6.20;4.93;;;20.70;70.00;;;;;;5035531;28;20025;-58
2021/08/21 01:44:15;;;;;;;5.18;4.43;;;20.70;70.00;;;;;;5035336;28;20357;-58
2021/08/21 01:46:42;;;;;;;6.18;4.40;;;20.70;70.10;;;;;;5035010;28;20366;-57
2021/08/21 01:49:11;;;;;;;7.40;4.88;;;20.70;70.10;;;;;;5034970;28;20026;-58
2021/08/21 01:51:47;;;;;;;7.72;5.00;;;20.70;70.20;;;;;;5035608;28;20463;-59
2021/08/21 01:54:17;;;;;;;5.78;4.93;;;20.70;70.30;;;;;;5036789;28;20025;-58
2021/08/21 01:56:49;;;;;;;6.10;4.80;;;20.70;70.40;;;;;;5054948;28;20029;-58
2021/08/21 01:59:22;;;;;;;5.78;4.35;;;20.70;70.40;;;;;;5055506;28;20025;-58
2021/08/21 02:01:48;;;;;;;6.65;5.28;;;20.70;70.50;;;;;;5055071;28;20025;-58
2021/08/21 02:04:14;;;;;;;6.35;5.05;;;20.70;70.40;;;;;;5055186;28;20031;-56
2021/08/21 02:06:40;;;;;;;7.22;4.95;;;20.60;70.40;;;;;;5055084;28;20032;-58
2021/08/21 02:09:05;;;;;;;5.82;4.70;;;20.60;70.40;;;;;;5054967;28;20065;-58
2021/08/21 02:11:31;;;;;;;6.20;4.95;;;20.60;70.60;;;;;;5054688;28;20035;-58
2021/08/21 02:13:57;;;;;;;7.07;5.10;;;20.60;71.10;;;;;;5054709;28;20087;-58
2021/08/21 02:16:23;;;;;;;5.60;4.65;;;20.60;71.00;;;;;;5047746;28;20026;-58
2021/08/21 02:18:49;;;;;;;6.32;4.95;;;20.60;71.20;;;;;;5034914;28;20025;-58
2021/08/21 02:21:17;;;;;;;5.97;5.30;;;20.60;71.50;;;;;;5034885;28;20059;-59
2021/08/21 02:23:43;;;;;;;5.82;5.05;;;20.60;71.80;;;;;;5034541;28;20120;-58
2021/08/21 02:26:09;;;;;;;5.35;4.65;;;20.60;71.90;;;;;;5034948;28;20053;-55
2021/08/21 02:28:35;;;;;;;7.03;5.13;;;20.50;71.90;;;;;;5034948;28;20029;-58
2021/08/21 02:31:00;;;;;;;5.65;5.05;;;20.50;72.00;;;;;;5034593;28;20385;-58
2021/08/21 02:33:26;;;;;;;6.20;5.20;;;20.50;72.20;;;;;;5034558;28;20496;-58
2021/08/21 02:35:52;;;;;;;6.55;5.53;;;20.50;72.60;;;;;;5034740;28;20126;-58
2021/08/21 02:38:17;;;;;;;6.82;5.00;;;20.50;72.60;;;;;;5034491;28;20029;-59
2021/08/21 02:40:43;;;;;;;6.93;5.07;;;20.50;72.80;;;;;;5034688;28;20022;-58
2021/08/21 02:43:09;;;;;;;5.95;4.90;;;20.50;72.70;;;;;;5034389;28;20493;-58
2021/08/21 02:45:35;;;;;;;5.85;5.22;;;20.50;73.20;;;;;;5034139;28;20029;-59
2021/08/21 02:48:01;;;;;;;6.90;4.75;;;20.50;73.00;;;;;;5034636;28;20025;-56
2021/08/21 02:50:27;;;;;;;6.82;5.13;;;20.40;72.80;;;;;;5034292;28;20040;-58
2021/08/21 02:52:52;;;;;;;5.50;4.65;;;20.40;73.10;;;;;;5034670;28;20377;-58
2021/08/21 02:55:18;;;;;;;6.25;4.80;;;20.40;72.80;;;;;;5034983;28;20033;-58
2021/08/21 02:57:43;;;;;;;5.60;4.72;;;20.40;73.00;;;;;;5035101;28;20049;-58
2021/08/21 03:00:09;;;;;;;7.32;4.75;;;20.40;72.90;;;;;;5034845;28;20087;-58
2021/08/21 03:02:35;;;;;;;7.18;5.65;;;20.40;73.00;;;;;;5035331;28;20497;-58
2021/08/21 03:05:01;;;;;;;6.20;4.97;;;20.40;73.20;;;;;;5034865;28;20109;-59
2021/08/21 03:07:26;;;;;;;5.53;5.00;;;20.40;73.30;;;;;;5034546;28;20030;-59
2021/08/21 03:09:52;;;;;;;6.00;4.75;;;20.40;73.40;;;;;;5034577;28;20029;-58
2021/08/21 03:12:18;;;;;;;9.07;5.25;;;20.40;73.30;;;;;;5034806;28;20017;-58
2021/08/21 03:14:43;;;;;;;6.57;5.47;;;20.40;73.30;;;;;;5034734;28;20041;-59
2021/08/21 03:17:11;;;;;;;6.47;5.10;;;20.40;73.30;;;;;;5033803;28;20399;-58
2021/08/21 03:19:37;;;;;;;7.18;5.20;;;20.40;73.50;;;;;;5034275;28;20061;-58
2021/08/21 03:22:03;;;;;;;6.85;4.97;;;20.40;73.50;;;;;;5034225;28;20474;-58
2021/08/21 03:24:29;;;;;;;5.80;4.95;;;20.40;73.50;;;;;;5034375;28;20405;-58
2021/08/21 03:26:54;;;;;;;7.07;5.25;;;20.50;73.60;;;;;;5033791;28;20034;-58
2021/08/21 03:29:20;;;;;;;6.18;4.55;;;20.50;73.60;;;;;;5034012;28;20096;-57
2021/08/21 03:31:46;;;;;;;6.20;4.70;;;20.50;73.70;;;;;;5033803;28;20145;-54
2021/08/21 03:34:11;;;;;;;6.43;4.88;;;20.60;73.60;;;;;;5034369;28;20072;-58
2021/08/21 03:36:37;;;;;;;6.57;5.25;;;20.60;73.50;;;;;;5033932;28;20025;-58
2021/08/21 03:39:03;;;;;;;7.10;5.22;;;20.60;73.40;;;;;;5033839;28;20041;-58
2021/08/21 03:41:28;;;;;;;8.13;5.22;;;20.70;73.40;;;;;;5034120;28;20029;-58
2021/08/21 03:43:54;;;;;;;6.03;4.82;;;20.70;73.40;;;;;;5034000;28;20029;-58
2021/08/21 03:46:19;;;;;;;7.57;4.78;;;20.80;73.40;;;;;;5041611;28;20025;-59
2021/08/21 03:48:45;;;;;;;6.65;5.82;;;20.80;73.40;;;;;;5053211;28;20060;-58
2021/08/21 03:51:11;;;;;;;6.63;5.10;;;20.80;73.80;;;;;;5053329;28;20128;-58
2021/08/21 03:53:36;;;;;;;5.70;4.65;;;20.90;73.20;;;;;;5053216;28;20029;-58
2021/08/21 03:56:02;;;;;;;6.03;5.15;;;20.90;72.90;;;;;;5054540;28;20019;-57
2021/08/21 03:58:28;;;;;;;6.63;5.40;;;21.00;72.80;;;;;;5058075;28;20096;-58
2021/08/21 04:00:54;;;;;;;5.25;4.55;;;21.00;72.70;;;;;;5051945;28;20033;-57
2021/08/21 04:03:19;;;;;;;5.97;4.88;;;21.00;72.50;;;;;;5037389;28;20076;-58
2021/08/21 04:05:45;;;;;;;6.00;5.07;;;21.10;72.70;;;;;;5037297;28;20530;-57
2021/08/21 04:08:11;;;;;;;6.38;4.93;;;21.10;72.30;;;;;;5037165;28;20429;-58
2021/08/21 04:10:38;;;;;;;7.25;4.90;;;21.20;72.30;;;;;;5036960;28;20518;-59
2021/08/21 04:13:04;;;;;;;5.30;4.60;;;21.20;72.20;;;;;;5037335;28;20051;-59
2021/08/21 04:15:29;;;;;;;6.68;4.68;;;21.30;72.10;;;;;;5035756;28;20384;-58
2021/08/21 04:17:55;;;;;;;6.30;4.90;;;21.30;72.70;;;;;;5055144;28;20028;-58
2021/08/21 04:20:21;;;;;;;6.35;5.15;;;21.40;72.00;;;;;;5049727;28;20032;-59
2021/08/21 04:22:46;;;;;;;6.63;5.03;;;21.40;71.70;;;;;;5036205;28;20025;-58
2021/08/21 04:25:12;;;;;;;6.22;4.95;;;21.50;71.70;;;;;;5037048;28;20499;-59
2021/08/21 04:27:38;;;;;;;5.88;5.03;;;21.50;71.40;;;;;;5036744;28;20500;-57
2021/08/21 04:30:04;;;;;;;5.50;4.70;;;21.60;71.40;;;;;;5036667;28;20032;-58
2021/08/21 04:32:30;;;;;;;5.97;5.25;;;21.60;71.10;;;;;;5036622;28;20030;-58
2021/08/21 04:34:55;;;;;;;5.80;5.13;;;21.70;71.00;;;;;;5036519;28;20030;-57
2021/08/21 04:37:21;;;;;;;6.30;5.50;;;21.70;70.90;;;;;;5036626;28;20025;-58
2021/08/21 04:39:47;;;;;;;7.03;5.05;;;21.70;70.70;;;;;;5036532;28;20043;-58
2021/08/21 04:42:12;;;;;;;5.70;4.72;;;21.70;70.50;;;;;;5036033;28;20049;-58
2021/08/21 04:44:38;;;;;;;6.25;4.90;;;21.80;70.60;;;;;;5036606;28;20049;-59
2021/08/21 04:47:04;;;;;;;5.57;4.65;;;21.90;70.60;;;;;;5049479;28;20036;-59
2021/08/21 04:49:30;;;;;;;5.72;5.13;;;21.90;70.30;;;;;;5056352;28;20506;-58
2021/08/21 04:51:56;;;;;;;6.75;5.07;;;22.00;70.10;;;;;;5056085;28;20111;-58
2021/08/21 04:54:22;;;;;;;6.25;4.80;;;22.10;70.10;;;;;;5056366;28;20423;-58
2021/08/21 04:56:49;;;;;;;6.63;4.63;;;22.10;70.10;;;;;;5056337;28;20100;-58
2021/08/21 04:59:14;;;;;;;5.90;4.63;;;22.20;69.90;;;;;;5055939;28;20029;-59
2021/08/21 05:01:40;;;;;;;5.43;4.35;;;22.20;69.80;;;;;;5056293;28;20021;-58
2021/08/21 05:04:06;;;;;;;7.35;5.15;;;22.30;69.80;;;;;;5055738;28;20078;-58
2021/08/21 05:06:31;;;;;;;6.05;4.93;;;22.40;69.80;;;;;;5055879;28;20025;-58
2021/08/21 05:08:57;;;;;;;5.65;5.15;;;22.40;69.40;;;;;;5054836;28;20028;-58
2021/08/21 05:11:23;;;;;;;7.15;4.88;;;22.50;69.40;;;;;;5055904;28;20180;-58
2021/08/21 05:13:48;;;;;;;5.80;4.95;;;22.60;69.10;;;;;;5055612;28;20056;-58
2021/08/21 05:16:14;;;;;;;7.20;4.75;;;22.70;68.90;;;;;;5048584;28;20026;-58
2021/08/21 05:18:47;;;;;;;6.25;4.82;;;22.70;68.90;;;;;;5035803;28;20021;-59
2021/08/21 05:21:23;;;;;;;7.07;5.35;;;22.80;69.10;;;;;;5036034;28;20028;-59
2021/08/21 05:23:49;;;;;;;6.93;4.57;;;22.80;68.80;;;;;;5035934;28;20060;-59
2021/08/21 05:26:15;;;;;;;5.82;4.88;;;22.80;68.90;;;;;;5035397;28;20490;-59
2021/08/21 05:28:40;;;;;;;5.85;4.72;;;22.80;68.80;;;;;;5035322;28;20026;-58
2021/08/21 05:31:06;;;;;;;5.50;4.70;;;22.90;69.10;;;;;;5035203;28;20052;-59
2021/08/21 05:33:33;;;;;;;6.25;4.60;;;23.10;68.80;;;;;;5035114;28;20025;-59
2021/08/21 05:35:59;;;;;;;8.48;5.15;;;23.50;68.20;;;;;;5035324;28;20075;-58
2021/08/21 05:38:24;;;;;;;6.25;4.35;;;23.80;67.40;;;;;;5035474;28;20018;-59
2021/08/21 05:40:50;;;;;;;4.95;4.35;;;24.00;66.80;;;;;;5035212;28;20053;-58
2021/08/21 05:43:16;;;;;;;4.82;4.03;;;24.20;66.40;;;;;;5035273;28;20025;-59
2021/08/21 05:45:41;;;;;;;5.80;5.20;;;24.40;66.00;;;;;;5036121;28;20017;-58
2021/08/21 05:48:07;;;;;;;6.18;4.72;;;24.40;65.80;;;;;;5043275;28;20036;-58
2021/08/21 05:50:33;;;;;;;6.32;5.13;;;24.40;65.90;;;;;;5042179;28;20075;-58
2021/08/21 05:52:58;;;;;;;7.03;4.55;;;24.40;65.90;;;;;;5034668;28;20029;-58
2021/08/21 05:55:24;;;;;;;5.00;4.50;;;24.40;66.30;;;;;;5034274;28;20032;-59
2021/08/21 05:57:50;;;;;;;5.63;4.93;;;24.40;66.30;;;;;;5034707;28;20013;-58
2021/08/21 06:00:15;;;;;;;5.53;4.72;;;24.40;66.20;;;;;;5034838;28;20036;-59
2021/08/21 06:02:42;;;;;;;6.07;4.80;;;24.30;66.10;;;;;;5034544;28;20101;-59
2021/08/21 06:05:11;;;;;;;5.28;4.78;;;24.40;66.00;;;;;;5034540;28;20436;-58
2021/08/21 06:07:36;;;;;;;6.25;5.05;;;24.40;66.10;;;;;;5033872;28;20083;-58
2021/08/21 06:10:04;;;;;;;7.18;5.00;;;24.40;66.10;;;;;;5034528;28;20025;-59
2021/08/21 06:12:30;;;;;;;5.88;5.13;;;24.30;66.20;;;;;;5034492;28;20088;-59
2021/08/21 06:14:55;;;;;;;5.90;5.30;;;24.30;66.10;;;;;;5034395;28;20029;-59
2021/08/21 06:17:21;;;;;;;6.07;5.32;;;24.30;66.10;;;;;;5048574;28;20358;-58
2021/08/21 06:19:47;;;;;;;5.53;4.55;;;24.40;66.30;;;;;;5033841;28;20441;-57
2021/08/21 06:22:12;;;;;;;6.32;5.30;;;24.40;66.40;;;;;;5034537;28;20111;-58
2021/08/21 06:24:40;;;;;;;5.25;4.75;;;24.40;66.50;;;;;;5036201;28;20399;-57
2021/08/21 06:27:06;;;;;;;5.40;4.63;;;24.40;66.50;;;;;;5036798;28;20144;-58
2021/08/21 06:29:35;;;;;;;5.40;4.57;;;24.50;66.40;;;;;;5035479;28;20113;-56
2021/08/21 06:32:05;;;;;;;6.57;4.78;;;24.50;66.50;;;;;;5035600;28;20183;-58
2021/08/21 06:34:33;;;;;;;4.90;4.40;;;24.50;66.50;;;;;;5035081;28;20022;-58
2021/08/21 06:36:59;;;;;;;4.40;3.97;;;24.50;66.60;;;;;;5034889;28;20057;-58
2021/08/21 06:39:24;;;;;;;5.13;4.30;;;24.50;66.70;;;;;;5035483;28;20416;-58
2021/08/21 06:41:50;;;;;;;4.85;4.35;;;24.60;66.80;;;;;;5036260;28;20083;-58
2021/08/21 06:44:16;;;;;;;5.57;4.32;;;24.60;66.50;;;;;;5033841;28;20036;-58
2021/08/21 06:46:42;;;;;;;6.00;4.50;;;24.60;66.30;;;;;;5036049;28;20416;-58
2021/08/21 06:49:08;;;;;;;4.18;3.78;;;24.60;66.20;;;;;;5055109;28;20104;-58
2021/08/21 06:51:33;;;;;;;5.45;3.85;;;24.70;66.10;;;;;;5053662;28;20511;-58
2021/08/21 06:53:59;;;;;;;4.95;3.85;;;24.70;66.00;;;;;;5053614;28;20025;-58
2021/08/21 06:56:25;;;;;;;4.32;3.90;;;24.70;66.20;;;;;;5053489;28;20044;-59
2021/08/21 06:58:50;;;;;;;4.70;3.92;;;24.70;65.80;;;;;;5053686;28;20031;-58
2021/08/21 07:01:16;;;;;;;4.68;4.00;;;24.80;65.50;;;;;;5056832;28;20032;-57
2021/08/21 07:03:41;;;;;;;5.90;4.22;;;24.80;65.40;;;;;;5057685;28;20056;-58
2021/08/21 07:06:07;;;;;;;4.10;3.70;;;24.80;65.60;;;;;;5043227;28;20028;-57
2021/08/21 07:08:33;;;;;;;4.93;3.85;;;24.80;65.60;;;;;;5033620;28;20035;-59
2021/08/21 07:10:58;;;;;;;4.07;3.53;;;24.80;65.70;;;;;;5033523;28;20116;-58
2021/08/21 07:13:24;;;;;;;3.90;3.50;;;24.80;65.60;;;;;;5033392;28;20030;-59
2021/08/21 07:15:53;;;;;;;3.95;3.47;;;24.90;65.70;;;;;;5040483;28;20017;-59
2021/08/21 07:18:19;;;;;;;4.38;3.63;;;24.90;65.50;;;;;;5052584;28;20061;-59
2021/08/21 07:20:45;;;;;;;4.70;3.42;;;24.90;65.50;;;;;;5044797;28;20099;-59
2021/08/21 07:23:11;;;;;;;6.00;3.78;;;24.90;65.20;;;;;;5033548;28;20022;-59
2021/08/21 07:25:36;;;;;;;4.05;3.65;;;25.00;64.90;;;;;;5024341;28;20026;-59
2021/08/21 07:28:02;;;;;;;5.22;3.83;;;25.00;64.50;;;;;;5033170;28;20065;-58
2021/08/21 07:30:28;;;;;;;5.00;3.35;;;25.00;64.20;;;;;;5032740;28;20421;-59
2021/08/21 07:32:54;;;;;;;4.07;3.67;;;25.00;64.00;;;;;;5033919;28;20022;-58
2021/08/21 07:35:19;;;;;;;4.53;3.53;;;25.00;64.20;;;;;;5033497;28;20025;-58
2021/08/21 07:37:45;;;;;;;4.05;3.60;;;25.00;64.00;;;;;;5033348;28;20076;-59
2021/08/21 07:40:12;;;;;;;4.18;3.55;;;25.00;64.20;;;;;;5032970;28;20057;-58
2021/08/21 07:42:38;;;;;;;4.20;3.70;;;25.00;64.10;;;;;;5033151;28;20025;-59
2021/08/21 07:45:05;;;;;;;4.13;3.53;;;25.00;64.30;;;;;;5035457;28;20032;-59
2021/08/21 07:47:31;;;;;;;4.28;3.28;;;25.00;64.90;;;;;;5052958;28;20025;-59
2021/08/21 07:49:56;;;;;;;4.70;3.70;;;25.10;64.00;;;;;;5053284;28;20040;-58
2021/08/21 07:52:22;;;;;;;3.88;3.45;;;25.10;63.90;;;;;;5053004;28;20100;-58
2021/08/21 07:54:48;;;;;;;4.28;3.25;;;25.10;63.90;;;;;;5052848;28;20028;-59
2021/08/21 07:57:13;;;;;;;3.45;3.15;;;25.10;63.70;;;;;;5053104;28;20032;-59
2021/08/21 07:59:39;;;;;;;3.72;3.28;;;25.10;63.40;;;;;;5052887;28;20480;-57
2021/08/21 08:02:06;;;;;;;4.18;3.70;;;25.10;63.40;;;;;;5052933;28;20385;-58
2021/08/21 08:04:32;;;;;;;4.28;3.88;;;25.10;63.50;;;;;;5052987;28;20106;-59
2021/08/21 08:06:58;;;;;;;4.85;3.50;;;25.10;63.60;;;;;;5052735;28;20033;-58
2021/08/21 08:09:23;;;;;;;4.63;3.35;;;25.10;63.10;;;;;;5052782;28;20173;-59
2021/08/21 08:11:49;;;;;;;5.10;3.42;;;25.10;63.00;;;;;;5053027;28;20025;-58
2021/08/21 08:14:15;;;;;;;4.25;3.70;;;25.10;63.10;;;;;;5052708;28;20025;-59
2021/08/21 08:16:41;;;;;;;4.55;3.65;;;25.00;63.00;;;;;;5036013;28;20017;-59
2021/08/21 08:19:06;;;;;;;3.95;3.53;;;25.00;63.10;;;;;;5041115;28;20161;-58
2021/08/21 08:21:32;;;;;;;4.55;3.60;;;25.00;62.80;;;;;;5036061;28;20044;-59
2021/08/21 08:23:58;;;;;;;4.00;3.60;;;25.00;62.80;;;;;;5052857;28;20028;-58
2021/08/21 08:26:24;;;;;;;4.88;3.42;;;25.00;63.00;;;;;;5034828;28;20029;-59
2021/08/21 08:28:50;;;;;;;3.40;2.90;;;24.90;62.70;;;;;;5052985;28;20033;-59
2021/08/21 08:31:16;;;;;;;3.50;3.10;;;24.90;62.60;;;;;;5052336;28;20548;-59
2021/08/21 08:33:42;;;;;;;4.25;3.58;;;24.90;62.30;;;;;;5049396;28;20083;-57
2021/08/21 08:36:08;;;;;;;4.50;2.97;;;24.90;62.40;;;;;;5032605;28;20022;-58
2021/08/21 08:38:34;;;;;;;3.78;3.05;;;24.90;62.40;;;;;;5032820;28;20044;-57
2021/08/21 08:41:00;;;;;;;4.05;3.17;;;24.80;62.20;;;;;;5032560;28;20096;-58
2021/08/21 08:43:28;;;;;;;5.18;3.33;;;24.80;62.10;;;;;;5033813;28;20082;-58
2021/08/21 08:45:54;;;;;;;3.50;3.20;;;24.80;61.90;;;;;;5037234;28;20128;-58
2021/08/21 08:48:21;;;;;;;4.53;3.15;;;24.80;62.10;;;;;;5036562;28;20109;-59
2021/08/21 08:50:48;;;;;;;3.90;3.30;;;24.70;61.90;;;;;;5054111;28;20035;-59
2021/08/21 08:53:13;;;;;;;4.00;3.20;;;24.70;61.70;;;;;;5056261;28;20373;-59
2021/08/21 08:55:40;;;;;;;5.07;3.38;;;24.70;61.70;;;;;;5055934;28;20032;-59
2021/08/21 08:58:06;;;;;;;4.15;3.45;;;24.70;61.70;;;;;;5055797;28;20123;-59
2021/08/21 09:00:32;;;;;;;3.97;3.45;;;24.70;61.90;;;;;;5055992;28;20044;-58
2021/08/21 09:02:59;;;;;;;3.83;3.40;;;24.70;62.00;;;;;;5056052;28;20096;-58
2021/08/21 09:05:28;;;;;;;4.05;3.58;;;24.70;61.80;;;;;;5055761;28;20083;-58
2021/08/21 09:07:57;;;;;;;5.10;3.85;;;24.70;61.50;;;;;;5055987;28;20068;-58
2021/08/21 09:10:25;;;;;;;5.32;3.63;;;24.70;61.50;;;;;;5055617;28;20469;-57
2021/08/21 09:13:05;;;;;;;4.32;3.78;;;24.70;61.40;;;;;;5055696;28;20021;-58
2021/08/21 09:15:32;;;;;;;5.43;4.00;;;24.70;61.50;;;;;;5054953;28;20021;-57
2021/08/21 09:18:13;;;;;;;4.07;3.42;;;24.70;61.50;;;;;;5055655;28;20029;-58
2021/08/21 09:21:02;;;;;;;3.75;3.40;;;24.70;61.20;;;;;;5016192;28;20440;-58
2021/08/21 09:23:34;;;;;;;5.10;3.50;;;24.70;61.50;;;;;;5005588;28;20113;-58
2021/08/21 09:26:14;;;;;;;3.83;3.42;;;24.70;61.30;;;;;;5034632;28;20029;-59
2021/08/21 09:28:44;;;;;;;4.32;3.50;;;24.70;61.20;;;;;;5035817;28;20025;-58
2021/08/21 09:31:11;;;;;;;3.72;3.30;;;24.60;61.30;;;;;;5035089;28;20080;-58
2021/08/21 09:33:40;;;;;;;4.40;3.70;;;24.60;61.10;;;;;;5035427;28;20404;-58
2021/08/21 09:36:11;;;;;;;5.15;3.38;;;24.70;61.00;;;;;;5035209;28;20033;-58
2021/08/21 09:38:37;;;;;;;4.88;3.60;;;24.70;60.80;;;;;;5050591;28;20025;-59
2021/08/21 09:41:05;;;;;;;3.60;3.30;;;24.70;60.80;;;;;;5035249;28;20496;-59
2021/08/21 09:43:36;;;;;;;4.40;3.40;;;24.70;60.80;;;;;;5039713;28;20024;-58
2021/08/21 09:46:12;;;;;;;3.83;3.42;;;24.70;60.80;;;;;;5055080;28;20079;-58
2021/08/21 09:48:57;;;;;;;3.72;3.33;;;24.70;60.60;;;;;;5055131;28;20036;-58
2021/08/21 09:51:32;;;;;;;3.67;3.05;;;24.70;60.40;;;;;;5055296;28;20013;-59
2021/08/21 09:54:03;;;;;;;4.10;3.65;;;24.80;60.30;;;;;;5054539;28;20033;-59
2021/08/21 09:56:33;;;;;;;3.85;3.45;;;24.80;60.20;;;;;;5054919;28;20043;-58
2021/08/21 09:59:00;;;;;;;4.75;3.45;;;24.80;60.20;;;;;;5054896;28;20488;-58
2021/08/21 10:01:28;;;;;;;4.10;3.58;;;24.80;60.20;;;;;;5054808;28;20032;-59
2021/08/21 10:03:55;;;;;;;4.30;3.20;;;24.80;60.00;;;;;;5054576;28;20029;-59
2021/08/21 10:06:21;;;;;;;4.20;3.35;;;24.80;60.10;;;;;;5054767;28;20036;-59
2021/08/21 10:08:48;;;;;;;3.97;3.58;;;24.90;60.00;;;;;;5054596;28;20033;-59
2021/08/21 10:11:15;;;;;;;4.90;3.50;;;24.90;59.80;;;;;;5054704;28;20029;-59
2021/08/21 10:13:43;;;;;;;4.60;3.70;;;24.90;59.90;;;;;;5047622;28;20025;-59
2021/08/21 10:16:09;;;;;;;4.00;3.42;;;24.90;59.50;;;;;;5034753;28;20021;-59
2021/08/21 10:18:35;;;;;;;4.68;3.30;;;24.90;60.00;;;;;;5034718;28;20021;-59
2021/08/21 10:21:01;;;;;;;4.00;3.10;;;24.90;59.20;;;;;;5034273;28;20112;-59
2021/08/21 10:23:28;;;;;;;3.92;3.47;;;24.90;59.20;;;;;;5034363;28;20026;-59
2021/08/21 10:26:01;;;;;;;5.63;3.28;;;24.90;59.20;;;;;;5034140;28;20034;-58
2021/08/21 10:28:38;;;;;;;4.53;3.40;;;24.90;59.50;;;;;;5034209;28;20066;-58
2021/08/21 10:31:06;;;;;;;4.22;3.28;;;24.90;59.60;;;;;;5034034;28;20049;-58
2021/08/21 10:33:55;;;;;;;3.25;2.95;;;24.90;59.80;;;;;;5033995;28;20033;-58
2021/08/21 10:36:59;;;;;;;3.85;3.22;;;24.90;59.60;;;;;;5034326;28;20018;-58
2021/08/21 10:39:38;;;;;;;5.05;3.75;;;24.80;59.50;;;;;;4992448;28;20030;-59
2021/08/21 10:42:30;;;;;;;3.28;2.97;;;24.80;59.30;;;;;;4992554;28;20121;-59
2021/08/21 10:44:58;;;;;;;3.80;3.40;;;24.80;59.20;;;;;;5006566;28;20054;-59
2021/08/21 10:47:30;;;;;;;3.47;3.17;;;24.80;59.20;;;;;;5014443;28;20026;-57
2021/08/21 10:49:56;;;;;;;3.08;2.70;;;24.80;59.30;;;;;;5025640;28;20033;-59
2021/08/21 10:52:55;;;;;;;3.95;3.25;;;24.80;59.10;;;;;;5033792;28;20061;-58
2021/08/21 10:55:23;;;;;;;3.95;3.03;;;24.80;58.80;;;;;;5033912;28;20477;-59
2021/08/21 10:58:08;;;;;;;3.00;2.70;;;24.80;58.70;;;;;;5033796;28;20021;-59
2021/08/21 11:00:40;;;;;;;4.35;3.10;;;24.80;58.90;;;;;;5033538;28;20022;-59
2021/08/21 11:03:07;;;;;;;3.75;3.05;;;24.80;58.50;;;;;;5033717;28;20128;-59
2021/08/21 11:05:56;;;;;;;3.35;2.88;;;24.90;58.60;;;;;;5032819;28;20021;-59
2021/08/21 11:08:26;;;;;;;3.70;3.28;;;25.00;58.80;;;;;;5033570;28;20036;-58
2021/08/21 11:11:11;;;;;;;3.50;2.92;;;25.00;58.60;;;;;;5033607;28;20029;-59
2021/08/21 11:14:05;;;;;;;4.38;3.22;;;25.00;57.80;;;;;;5046942;28;20037;-59
2021/08/21 11:17:03;;;;;;;3.67;3.00;;;25.10;57.80;;;;;;5053367;28;20115;-59
2021/08/21 11:19:48;;;;;;;3.42;2.70;;;25.10;57.50;;;;;;5041897;28;20053;-59
2021/08/21 11:22:25;;;;;;;3.35;3.00;;;25.10;57.60;;;;;;5033688;28;20165;-58
2021/08/21 11:24:53;;;;;;;3.70;3.00;;;25.00;57.60;;;;;;5032886;28;20029;-59
2021/08/21 11:27:22;;;;;;;3.83;3.15;;;25.00;57.60;;;;;;5033331;28;20021;-59
2021/08/21 11:30:27;;;;;;;3.40;3.10;;;25.00;57.80;;;;;;5033511;28;20036;-58
2021/08/21 11:33:08;;;;;;;4.22;3.22;;;25.00;58.20;;;;;;5013444;28;20066;-59
2021/08/21 11:35:54;;;;;;;4.07;3.40;;;25.00;58.00;;;;;;5013425;28;20033;-59
2021/08/21 11:38:28;;;;;;;3.75;3.17;;;25.00;58.20;;;;;;5013984;28;20641;-59
2021/08/21 11:40:56;;;;;;;3.20;2.90;;;25.00;58.60;;;;;;5013565;28;20037;-59
2021/08/21 11:43:27;;;;;;;3.53;3.22;;;25.10;58.30;;;;;;5024001;28;20112;-59
2021/08/21 11:45:54;;;;;;;4.03;3.33;;;25.00;57.70;;;;;;5033191;28;20029;-58
2021/08/21 11:48:43;;;;;;;4.13;3.28;;;25.00;57.70;;;;;;5033158;28;20021;-59
2021/08/21 11:51:09;;;;;;;3.38;3.00;;;25.10;57.70;;;;;;4993859;28;20038;-58
2021/08/21 11:53:39;;;;;;;2.90;2.65;;;25.10;57.60;;;;;;4994081;28;20022;-59
2021/08/21 11:56:05;;;;;;;5.03;3.20;;;25.20;57.50;;;;;;4994082;28;20023;-58
2021/08/21 11:58:36;;;;;;;3.38;2.90;;;25.20;57.30;;;;;;4993774;28;20118;-58
2021/08/21 12:01:10;;;;;;;3.67;3.10;;;25.30;57.20;;;;;;4994004;28;20500;-59
2021/08/21 12:04:22;;;;;;;3.30;3.00;;;25.30;56.90;;;;;;4994016;28;20034;-59
2021/08/21 12:06:30;;;;;;;3.60;3.25;;;25.30;56.60;;;;;;4989614;28;20038;-59
2021/08/21 12:09:10;;;;;;;5.13;3.03;;;25.40;56.30;;;;;;4993553;28;20026;-58
2021/08/21 12:11:39;;;;;;;5.60;3.08;;;25.40;56.30;;;;;;4993513;28;20058;-59
2021/08/21 12:14:06;;;;;;;3.75;3.28;;;25.40;56.10;;;;;;5027291;28;20080;-58
2021/08/21 12:16:34;;;;;;;3.90;3.40;;;25.40;56.30;;;;;;5032867;28;20052;-59
2021/08/21 12:19:00;;;;;;;3.72;3.30;;;25.40;56.10;;;;;;5036644;28;20036;-58
2021/08/21 12:21:26;;;;;;;4.93;3.08;;;25.40;56.10;;;;;;5036644;28;20098;-59
2021/08/21 12:23:54;;;;;;;5.63;3.42;;;25.40;56.30;;;;;;5036509;28;20092;-59
2021/08/21 12:26:34;;;;;;;3.78;3.38;;;25.40;56.00;;;;;;5036503;28;20022;-57
2021/08/21 12:29:01;;;;;;;3.50;3.00;;;25.40;55.60;;;;;;5036525;28;20496;-59
2021/08/21 12:31:38;;;;;;;3.40;3.08;;;25.40;55.70;;;;;;5049080;28;20102;-59
2021/08/21 12:34:06;;;;;;;4.50;3.20;;;25.50;55.60;;;;;;5056833;28;20098;-58
2021/08/21 12:36:42;;;;;;;3.47;2.80;;;25.50;55.60;;;;;;5056504;28;20385;-58
2021/08/21 12:39:10;;;;;;;3.85;3.30;;;25.50;55.70;;;;;;5056395;28;20025;-58
2021/08/21 12:42:00;;;;;;;3.40;3.10;;;25.50;55.80;;;;;;5056063;28;20033;-59
2021/08/21 12:44:37;;;;;;;3.72;3.05;;;25.50;55.40;;;;;;5044100;28;20541;-57
2021/08/21 12:47:12;;;;;;;3.80;3.17;;;25.40;55.60;;;;;;5056151;28;20068;-59
2021/08/21 12:49:39;;;;;;;3.95;3.35;;;25.40;55.50;;;;;;5044692;28;20025;-57
2021/08/21 12:52:18;;;;;;;3.38;3.08;;;25.40;55.70;;;;;;5036395;28;20033;-58
2021/08/21 12:54:44;;;;;;;3.67;2.92;;;25.40;55.80;;;;;;5036027;28;20063;-58